Reedville, Texas
Current Conditions -  °F | °C
As of 11:45 AM on Thursday 30 Oct 2014 (Local Time) from KHYI Reporting Station
Overcast Overcast  
Wind Chill: 70°   Ceiling: 1500
Heat Index: 70°   Visibility: 10mi
Dew Point: 57°   Wind: 0mph
Humidity: 64%   Direction: NA
Pressure: 30.17"   Gusts: NA
Location:  29.8896°N, 97.8257°W
Report Text: KHYI 301645Z 00000KT 10SM OVC015 21/14 A3017
Loading
Personal Weather Stations






























Interactive Weather Map
Tropical Storm Tracking
New forecast layout! Learn more

10-Day Weather Forecast

Advertisements
Track Severe Weather on mobile